createdAt,value
2023-05-23T00:00:50.022Z,1008.36
2023-05-23T00:01:50.244Z,1008.35
2023-05-23T00:02:50.496Z,1008.38
2023-05-23T00:03:50.787Z,1008.28
2023-05-23T00:04:50.973Z,1008.27
2023-05-23T00:05:51.310Z,1008.28
2023-05-23T00:06:51.619Z,1008.27
2023-05-23T00:07:51.943Z,1008.27
2023-05-23T00:08:52.235Z,1008.22
2023-05-23T00:09:52.594Z,1008.20
2023-05-23T00:10:52.905Z,1008.22
2023-05-23T00:11:53.266Z,1008.28
2023-05-23T00:12:53.448Z,1008.24
2023-05-23T00:13:53.774Z,1008.23
2023-05-23T00:14:54.082Z,1008.23
2023-05-23T00:15:54.427Z,1008.24
2023-05-23T00:16:54.794Z,1008.19
2023-05-23T00:17:55.087Z,1008.16
2023-05-23T00:18:55.262Z,1008.17
2023-05-23T00:19:55.556Z,1008.14
2023-05-23T00:20:55.900Z,1008.14
2023-05-23T00:21:56.205Z,1008.14
2023-05-23T00:22:56.506Z,1008.16
2023-05-23T00:23:56.821Z,1008.09
2023-05-23T00:24:57.131Z,1008.06
2023-05-23T00:25:57.456Z,1008.09
2023-05-23T00:26:57.790Z,1008.07
2023-05-23T00:27:58.082Z,1008.00
2023-05-23T00:28:58.396Z,1008.03
2023-05-23T00:29:58.751Z,1008.00
2023-05-23T00:30:59.121Z,1008.01
2023-05-23T00:31:59.277Z,1008.07
2023-05-23T00:32:59.633Z,1008.06
2023-05-23T00:33:59.919Z,1007.99
2023-05-23T00:35:00.247Z,1007.94
2023-05-23T00:36:00.638Z,1007.93
2023-05-23T00:37:00.800Z,1007.98
2023-05-23T00:38:01.125Z,1007.97
2023-05-23T00:39:01.434Z,1007.95
2023-05-23T00:40:01.743Z,1007.99
2023-05-23T00:41:02.152Z,1007.92
2023-05-23T00:42:02.304Z,1008.01
2023-05-23T00:43:02.623Z,1007.98
2023-05-23T00:44:02.915Z,1008.03
2023-05-23T00:45:03.244Z,1008.03
2023-05-23T00:46:03.597Z,1008.03
2023-05-23T00:47:03.898Z,1008.01
2023-05-23T00:48:04.285Z,1008.02
2023-05-23T00:49:04.467Z,1008.03
2023-05-23T00:50:04.789Z,1008.03
2023-05-23T00:51:05.088Z,1008.04
2023-05-23T00:52:05.401Z,1007.99
2023-05-23T00:53:05.724Z,1007.99
2023-05-23T00:54:06.039Z,1008.02
2023-05-23T00:55:06.351Z,1007.98
2023-05-23T00:56:06.667Z,1007.95
2023-05-23T00:57:06.992Z,1007.96
2023-05-23T00:58:07.325Z,1007.97
2023-05-23T00:59:07.630Z,1007.95
2023-05-23T01:00:07.933Z,1007.95
2023-05-23T01:01:08.143Z,1007.97
2023-05-23T01:02:08.522Z,1007.95
2023-05-23T01:03:08.759Z,1007.98
2023-05-23T01:04:09.068Z,1007.97
2023-05-23T01:05:09.252Z,1007.95
2023-05-23T01:06:09.548Z,1007.92
2023-05-23T01:07:09.862Z,1007.91
2023-05-23T01:08:10.182Z,1007.97
2023-05-23T01:09:10.487Z,1007.97
2023-05-23T01:10:10.771Z,1007.96
2023-05-23T01:11:11.130Z,1007.89
2023-05-23T01:12:11.441Z,1007.90
2023-05-23T01:13:11.746Z,1007.92
2023-05-23T01:14:12.050Z,1007.95
2023-05-23T01:15:12.369Z,1007.92
2023-05-23T01:16:12.778Z,1007.92
2023-05-23T01:17:12.945Z,1007.87
2023-05-23T01:18:13.254Z,1007.88
2023-05-23T01:19:13.564Z,1007.87
2023-05-23T01:20:13.882Z,1007.89
2023-05-23T01:21:14.106Z,1007.86
2023-05-23T01:22:14.431Z,1007.80
2023-05-23T01:23:14.730Z,1007.78
2023-05-23T01:24:15.078Z,1007.74
2023-05-23T01:25:15.405Z,1007.77
2023-05-23T01:26:15.722Z,1007.77
2023-05-23T01:27:16.039Z,1007.72
2023-05-23T01:28:16.340Z,1007.73
2023-05-23T01:29:16.661Z,1007.79
2023-05-23T01:30:16.970Z,1007.71
2023-05-23T01:31:17.316Z,1007.66
2023-05-23T01:32:17.573Z,1007.74
2023-05-23T01:33:17.873Z,1007.70
2023-05-23T01:34:18.196Z,1007.69
2023-05-23T01:35:18.507Z,1007.68
2023-05-23T01:36:18.838Z,1007.74
2023-05-23T01:37:19.168Z,1007.74
2023-05-23T01:38:19.462Z,1007.72
2023-05-23T01:39:19.759Z,1007.76
2023-05-23T01:40:20.081Z,1007.82
2023-05-23T01:41:20.415Z,1007.80
2023-05-23T01:42:20.728Z,1007.78
2023-05-23T01:43:20.998Z,1007.78
2023-05-23T01:44:21.561Z,1007.73
2023-05-23T01:45:21.661Z,1007.76
2023-05-23T01:46:22.105Z,1007.73
2023-05-23T01:47:22.321Z,1007.70
2023-05-23T01:48:22.602Z,1007.68
2023-05-23T01:49:22.949Z,1007.64
2023-05-23T01:50:23.234Z,1007.71
2023-05-23T01:51:23.532Z,1007.70
2023-05-23T01:52:23.904Z,1007.71
2023-05-23T01:53:24.189Z,1007.69
2023-05-23T01:54:24.520Z,1007.67
2023-05-23T01:55:24.828Z,1007.65
2023-05-23T01:56:25.159Z,1007.68
2023-05-23T01:57:25.432Z,1007.61
2023-05-23T01:58:25.682Z,1007.66
2023-05-23T01:59:26.024Z,1007.67
2023-05-23T02:00:26.325Z,1007.56
2023-05-23T02:01:26.665Z,1007.60
2023-05-23T02:02:27.004Z,1007.65
2023-05-23T02:03:27.323Z,1007.58
2023-05-23T02:04:27.522Z,1007.59
2023-05-23T02:05:27.829Z,1007.55
2023-05-23T02:06:28.140Z,1007.51
2023-05-23T02:07:28.472Z,1007.55
2023-05-23T02:08:28.783Z,1007.52
2023-05-23T02:09:29.083Z,1007.57
2023-05-23T02:10:29.397Z,1007.54
2023-05-23T02:11:29.717Z,1007.57
2023-05-23T02:12:30.042Z,1007.60
2023-05-23T02:13:30.334Z,1007.46
2023-05-23T02:14:30.645Z,1007.54
2023-05-23T02:15:30.939Z,1007.46
2023-05-23T02:16:31.278Z,1007.47
2023-05-23T02:17:31.625Z,1007.42
2023-05-23T02:18:31.823Z,1007.45
2023-05-23T02:19:32.130Z,1007.41
2023-05-23T02:20:32.396Z,1007.43
2023-05-23T02:21:35.016Z,1007.43
2023-05-23T02:22:33.068Z,1007.41
2023-05-23T02:23:33.393Z,1007.41
2023-05-23T02:24:33.691Z,1007.38
2023-05-23T02:25:34.024Z,1007.37
2023-05-23T02:26:34.359Z,1007.39
2023-05-23T02:27:34.671Z,1007.41
2023-05-23T02:28:35.001Z,1007.43
2023-05-23T02:29:35.343Z,1007.46
2023-05-23T02:30:35.623Z,1007.38
2023-05-23T02:31:36.003Z,1007.43
2023-05-23T02:32:36.246Z,1007.37
2023-05-23T02:33:36.431Z,1007.40
2023-05-23T02:34:36.757Z,1007.35
2023-05-23T02:35:37.097Z,1007.37
2023-05-23T02:36:37.427Z,1007.43
2023-05-23T02:37:37.747Z,1007.36
2023-05-23T02:38:38.082Z,1007.37
2023-05-23T02:39:38.395Z,1007.31
2023-05-23T02:40:38.746Z,1007.35
2023-05-23T02:41:39.085Z,1007.34
2023-05-23T02:42:39.400Z,1007.32
2023-05-23T02:43:39.763Z,1007.28
2023-05-23T02:44:40.059Z,1007.28
2023-05-23T02:45:40.448Z,1007.20
2023-05-23T02:46:40.609Z,1007.25
2023-05-23T02:47:40.835Z,1007.17
2023-05-23T02:48:41.168Z,1007.21
2023-05-23T02:49:41.485Z,1007.20
2023-05-23T02:50:41.808Z,1007.20
2023-05-23T02:51:42.135Z,1007.20
2023-05-23T02:52:42.433Z,1007.16
2023-05-23T02:53:42.770Z,1007.21
2023-05-23T02:54:43.114Z,1007.15
2023-05-23T02:55:43.481Z,1007.17
2023-05-23T02:56:43.650Z,1007.13
2023-05-23T02:57:44.000Z,1007.15
2023-05-23T02:58:44.335Z,1007.17
2023-05-23T02:59:44.677Z,1007.18
2023-05-23T03:00:44.888Z,1007.17
2023-05-23T03:01:45.268Z,1007.18
2023-05-23T03:02:45.642Z,1007.17
2023-05-23T03:03:46.010Z,1007.16
2023-05-23T03:04:46.191Z,1007.20
2023-05-23T03:05:46.422Z,1007.17
2023-05-23T03:06:46.706Z,1007.16
2023-05-23T03:07:46.974Z,1007.20
2023-05-23T03:08:47.324Z,1007.24
2023-05-23T03:09:47.610Z,1007.15
2023-05-23T03:10:47.865Z,1007.18
2023-05-23T03:11:48.132Z,1007.08
2023-05-23T03:12:48.462Z,1007.09
2023-05-23T03:13:48.694Z,1007.10
2023-05-23T03:14:48.966Z,1007.09
2023-05-23T03:15:49.257Z,1007.08
2023-05-23T03:16:49.556Z,1007.14
2023-05-23T03:17:49.892Z,1007.08
2023-05-23T03:18:50.146Z,1007.14
2023-05-23T03:19:50.400Z,1007.12
2023-05-23T03:20:50.713Z,1007.13
2023-05-23T03:21:50.969Z,1007.10
2023-05-23T03:22:51.260Z,1007.11
2023-05-23T03:23:51.544Z,1007.18
2023-05-23T03:24:51.846Z,1007.13
2023-05-23T03:25:52.134Z,1007.18
2023-05-23T03:26:52.417Z,1007.17
2023-05-23T03:27:52.702Z,1007.14
2023-05-23T03:28:52.988Z,1007.18
2023-05-23T03:29:53.242Z,1007.18
2023-05-23T03:30:53.528Z,1007.16
2023-05-23T03:31:53.860Z,1007.16
2023-05-23T03:32:54.171Z,1007.17
2023-05-23T03:33:54.425Z,1007.17
2023-05-23T03:34:54.714Z,1007.15
2023-05-23T03:35:54.984Z,1007.17
2023-05-23T03:36:55.291Z,1007.19
2023-05-23T03:37:55.554Z,1007.16
2023-05-23T03:38:55.833Z,1007.11
2023-05-23T03:39:56.139Z,1007.10
2023-05-23T03:40:56.411Z,1007.15
2023-05-23T03:41:56.695Z,1007.12
2023-05-23T03:42:57.018Z,1007.12
2023-05-23T03:43:57.330Z,1007.13
2023-05-23T03:44:57.583Z,1007.12
2023-05-23T03:45:57.905Z,1007.11
2023-05-23T03:46:58.199Z,1007.10
2023-05-23T03:47:58.534Z,1007.06
2023-05-23T03:48:58.756Z,1007.05
2023-05-23T03:49:59.049Z,1007.11
2023-05-23T03:50:59.336Z,1007.04
2023-05-23T03:51:59.658Z,1007.03
2023-05-23T03:52:59.961Z,1007.04
2023-05-23T03:54:00.202Z,1007.04
2023-05-23T03:55:00.526Z,1006.98
2023-05-23T03:56:00.791Z,1007.04
2023-05-23T03:57:01.051Z,1006.99
2023-05-23T03:58:01.318Z,1007.06
2023-05-23T03:59:01.630Z,1007.02
2023-05-23T04:00:01.927Z,1007.05
2023-05-23T04:01:02.355Z,1007.03
2023-05-23T04:02:02.512Z,1007.02
2023-05-23T04:03:02.846Z,1007.04
2023-05-23T04:04:03.336Z,1007.04
2023-05-23T04:05:03.347Z,1007.04
2023-05-23T04:06:03.631Z,1007.15
2023-05-23T04:07:03.916Z,1007.10
2023-05-23T04:08:04.231Z,1007.07
2023-05-23T04:09:04.500Z,1007.14
2023-05-23T04:10:04.840Z,1007.10
2023-05-23T04:11:05.120Z,1007.09
2023-05-23T04:12:05.413Z,1007.13
2023-05-23T04:13:05.681Z,1007.13
2023-05-23T04:14:06.011Z,1007.10
2023-05-23T04:15:06.299Z,1007.15
2023-05-23T04:16:06.580Z,1007.09
2023-05-23T04:17:06.868Z,1007.07
2023-05-23T04:18:07.202Z,1007.12
2023-05-23T04:19:07.515Z,1007.09
2023-05-23T04:20:07.764Z,1007.10
2023-05-23T04:21:08.083Z,1007.05
2023-05-23T04:22:08.358Z,1007.14
2023-05-23T04:23:08.624Z,1007.12
2023-05-23T04:24:08.846Z,1007.08
2023-05-23T04:25:09.082Z,1007.10
2023-05-23T04:26:09.302Z,1007.01
2023-05-23T04:27:09.551Z,1007.05
2023-05-23T04:28:09.784Z,1007.01
2023-05-23T04:29:10.023Z,1007.02
2023-05-23T04:30:10.242Z,1006.99
2023-05-23T04:31:10.516Z,1006.98
2023-05-23T04:32:10.862Z,1007.00
2023-05-23T04:33:11.144Z,1007.00
2023-05-23T04:34:11.333Z,1007.06
2023-05-23T04:35:14.181Z,1007.09
2023-05-23T04:36:11.843Z,1007.08
2023-05-23T04:37:12.082Z,1007.02
2023-05-23T04:38:12.331Z,1007.02
2023-05-23T04:39:12.564Z,1007.01
2023-05-23T04:40:12.800Z,1006.95
2023-05-23T04:41:13.079Z,1007.00
2023-05-23T04:42:15.065Z,1007.00
2023-05-23T04:43:13.590Z,1006.99
2023-05-23T04:44:13.827Z,1006.91
2023-05-23T04:45:14.075Z,1006.95
2023-05-23T04:46:14.331Z,1006.96
2023-05-23T04:47:14.580Z,1006.95
2023-05-23T04:48:14.865Z,1006.94
2023-05-23T04:49:15.134Z,1006.97
2023-05-23T04:50:15.350Z,1006.99
2023-05-23T04:51:15.600Z,1007.04
2023-05-23T04:52:15.843Z,1007.00
2023-05-23T04:53:16.064Z,1007.03
2023-05-23T04:54:16.380Z,1007.01
2023-05-23T04:55:16.669Z,1006.99
2023-05-23T04:56:16.927Z,1006.98
2023-05-23T04:57:17.178Z,1006.98
2023-05-23T04:58:17.431Z,1006.99
2023-05-23T04:59:17.657Z,1006.92
2023-05-23T05:00:25.411Z,1006.86
2023-05-23T05:01:18.319Z,1006.86
2023-05-23T05:02:18.560Z,1006.90
2023-05-23T05:03:18.832Z,1006.78
2023-05-23T05:04:19.099Z,1006.83
2023-05-23T05:05:19.308Z,1006.86
2023-05-23T05:06:19.557Z,1006.84
2023-05-23T05:07:19.803Z,1006.84
2023-05-23T05:08:20.081Z,1006.79
2023-05-23T05:09:20.281Z,1006.79
2023-05-23T05:10:20.610Z,1006.78
2023-05-23T05:11:20.835Z,1006.79
2023-05-23T05:12:21.088Z,1006.79
2023-05-23T05:13:21.323Z,1006.77
2023-05-23T05:14:21.546Z,1006.78
2023-05-23T05:15:21.800Z,1006.78
2023-05-23T05:16:22.178Z,1006.75
2023-05-23T05:17:22.284Z,1006.79
2023-05-23T05:18:22.580Z,1006.70
2023-05-23T05:19:22.959Z,1006.76
2023-05-23T05:20:23.225Z,1006.75
2023-05-23T05:21:23.458Z,1006.73
2023-05-23T05:22:23.728Z,1006.75
2023-05-23T05:23:24.049Z,1006.69
2023-05-23T05:24:24.310Z,1006.68
2023-05-23T05:25:24.620Z,1006.65
2023-05-23T05:26:24.841Z,1006.69
2023-05-23T05:27:27.142Z,1006.69
2023-05-23T05:28:25.465Z,1006.72
2023-05-23T05:29:25.776Z,1006.67
2023-05-23T05:30:26.036Z,1006.71
2023-05-23T05:31:26.351Z,1006.71
2023-05-23T05:32:26.622Z,1006.73
2023-05-23T05:33:26.905Z,1006.72
2023-05-23T05:34:27.271Z,1006.74
2023-05-23T05:35:27.646Z,1006.77
2023-05-23T05:36:27.754Z,1006.74
2023-05-23T05:37:27.996Z,1006.79
2023-05-23T05:38:28.234Z,1006.78
2023-05-23T05:39:28.451Z,1006.74
2023-05-23T05:40:28.822Z,1006.80
2023-05-23T05:41:29.079Z,1006.70
2023-05-23T05:42:29.317Z,1006.81
2023-05-23T05:43:29.579Z,1006.73
2023-05-23T05:44:29.802Z,1006.74
2023-05-23T05:45:30.061Z,1006.78
2023-05-23T05:46:30.333Z,1006.75
2023-05-23T05:47:30.610Z,1006.72
2023-05-23T05:48:30.889Z,1006.73
2023-05-23T05:49:31.150Z,1006.73
2023-05-23T05:50:31.429Z,1006.70
2023-05-23T05:51:31.683Z,1006.72
2023-05-23T05:52:31.949Z,1006.70
2023-05-23T05:53:32.163Z,1006.67
2023-05-23T05:54:32.504Z,1006.69
2023-05-23T05:55:32.774Z,1006.63
2023-05-23T05:56:33.027Z,1006.66
2023-05-23T05:57:37.750Z,1006.67
2023-05-23T05:58:33.572Z,1006.68
2023-05-23T05:59:33.804Z,1006.66
2023-05-23T06:00:34.042Z,1006.64
2023-05-23T06:01:34.264Z,1006.61
2023-05-23T06:02:34.771Z,1006.60
2023-05-23T06:03:35.029Z,1006.58
2023-05-23T06:04:35.177Z,1006.62
2023-05-23T06:05:35.423Z,1006.55
2023-05-23T06:06:35.672Z,1006.59
2023-05-23T06:07:35.921Z,1006.58
2023-05-23T06:08:36.176Z,1006.55
2023-05-23T06:09:36.430Z,1006.58
2023-05-23T06:10:36.675Z,1006.52
2023-05-23T06:11:36.915Z,1006.53
2023-05-23T06:12:37.248Z,1006.49
2023-05-23T06:13:37.526Z,1006.51
2023-05-23T06:14:37.706Z,1006.49
2023-05-23T06:15:37.957Z,1006.49
2023-05-23T06:16:38.190Z,1006.43
2023-05-23T06:17:38.479Z,1006.49
2023-05-23T06:18:38.689Z,1006.43
2023-05-23T06:19:39.045Z,1006.49
2023-05-23T06:20:39.348Z,1006.41
2023-05-23T06:21:39.680Z,1006.46
2023-05-23T06:22:39.738Z,1006.44
2023-05-23T06:23:40.109Z,1006.51
2023-05-23T06:24:40.378Z,1006.53
2023-05-23T06:25:40.656Z,1006.55
2023-05-23T06:26:40.911Z,1006.51
2023-05-23T06:27:41.145Z,1006.53
2023-05-23T06:28:41.390Z,1006.53
2023-05-23T06:29:42.084Z,1006.50
2023-05-23T06:30:42.428Z,1006.51
2023-05-23T06:31:42.380Z,1006.56
2023-05-23T06:32:42.667Z,1006.54
2023-05-23T06:33:42.892Z,1006.49
2023-05-23T06:34:43.142Z,1006.57
2023-05-23T06:35:43.913Z,1006.54
2023-05-23T06:36:43.675Z,1006.43
2023-05-23T06:37:43.901Z,1006.49
2023-05-23T06:38:44.158Z,1006.48
2023-05-23T06:39:44.438Z,1006.48
2023-05-23T06:40:44.660Z,1006.46
2023-05-23T06:41:44.905Z,1006.49
2023-05-23T06:42:45.138Z,1006.48
2023-05-23T06:43:45.384Z,1006.50
2023-05-23T06:44:45.645Z,1006.49
2023-05-23T06:45:45.907Z,1006.51
2023-05-23T06:46:46.169Z,1006.51
2023-05-23T06:47:46.441Z,1006.58
2023-05-23T06:48:46.732Z,1006.59
2023-05-23T06:49:46.960Z,1006.55
2023-05-23T06:50:47.195Z,1006.58
2023-05-23T06:51:47.567Z,1006.62
2023-05-23T06:52:47.655Z,1006.54
2023-05-23T06:53:47.907Z,1006.54
2023-05-23T06:54:48.158Z,1006.56
2023-05-23T06:55:48.409Z,1006.56
2023-05-23T06:56:48.636Z,1006.57
2023-05-23T06:57:48.887Z,1006.57
2023-05-23T06:58:49.138Z,1006.55
2023-05-23T06:59:49.397Z,1006.51
2023-05-23T07:00:49.671Z,1006.46
2023-05-23T07:01:49.873Z,1006.53
2023-05-23T07:02:50.145Z,1006.50
2023-05-23T07:03:50.382Z,1006.53
2023-05-23T07:04:50.622Z,1006.50
2023-05-23T07:05:50.952Z,1006.45
2023-05-23T07:06:51.188Z,1006.47
2023-05-23T07:07:51.455Z,1006.50
2023-05-23T07:08:51.704Z,1006.45
2023-05-23T07:09:51.914Z,1006.44
2023-05-23T07:10:52.155Z,1006.45
2023-05-23T07:11:52.410Z,1006.48
2023-05-23T07:12:52.651Z,1006.43
2023-05-23T07:13:52.877Z,1006.40
2023-05-23T07:14:53.131Z,1006.41
2023-05-23T07:15:53.414Z,1006.40
2023-05-23T07:16:53.694Z,1006.38
2023-05-23T07:17:53.989Z,1006.40
2023-05-23T07:18:54.228Z,1006.44
2023-05-23T07:19:54.470Z,1006.39
2023-05-23T07:20:54.809Z,1006.36
2023-05-23T07:21:54.974Z,1006.36
2023-05-23T07:22:55.225Z,1006.40
2023-05-23T07:23:55.487Z,1006.36
2023-05-23T07:24:55.716Z,1006.43
2023-05-23T07:26:02.670Z,1006.35
2023-05-23T07:26:57.425Z,1006.35
2023-05-23T07:27:56.709Z,1006.36
2023-05-23T07:28:56.955Z,1006.42
2023-05-23T07:29:57.256Z,1006.40
2023-05-23T07:30:57.554Z,1006.46
2023-05-23T07:31:57.721Z,1006.44
2023-05-23T07:32:57.972Z,1006.42
2023-05-23T07:33:59.860Z,1006.44
2023-05-23T07:34:58.527Z,1006.42
2023-05-23T07:35:58.824Z,1006.45
2023-05-23T07:36:59.064Z,1006.43
2023-05-23T07:37:59.334Z,1006.42
2023-05-23T07:38:59.572Z,1006.41
2023-05-23T07:39:59.815Z,1006.42
2023-05-23T07:41:10.905Z,1006.35
2023-05-23T07:42:01.393Z,1006.33
2023-05-23T07:43:00.921Z,1006.39
2023-05-23T07:44:00.963Z,1006.40
2023-05-23T07:45:01.193Z,1006.38
2023-05-23T07:46:01.540Z,1006.36
2023-05-23T07:47:01.767Z,1006.37
2023-05-23T07:48:02.121Z,1006.35
2023-05-23T07:49:02.947Z,1006.35
2023-05-23T07:50:02.537Z,1006.35
2023-05-23T07:51:02.768Z,1006.39
2023-05-23T07:52:03.035Z,1006.39
2023-05-23T07:53:03.506Z,1006.41
2023-05-23T07:54:03.697Z,1006.37
2023-05-23T07:55:03.772Z,1006.32
2023-05-23T07:56:04.022Z,1006.34
2023-05-23T07:57:04.280Z,1006.32
2023-05-23T07:58:04.546Z,1006.31
2023-05-23T07:59:04.785Z,1006.30
2023-05-23T08:00:05.018Z,1006.34
2023-05-23T08:01:05.786Z,1006.36
2023-05-23T08:02:05.616Z,1006.37
2023-05-23T08:03:05.884Z,1006.38
2023-05-23T08:04:06.137Z,1006.39
2023-05-23T08:05:06.356Z,1006.33
2023-05-23T08:06:06.612Z,1006.35
2023-05-23T08:07:06.824Z,1006.35
2023-05-23T08:08:07.078Z,1006.35
2023-05-23T08:09:07.362Z,1006.35
2023-05-23T08:10:07.607Z,1006.34
2023-05-23T08:11:07.848Z,1006.40
2023-05-23T08:12:08.097Z,1006.39
2023-05-23T08:13:08.369Z,1006.42
2023-05-23T08:14:08.606Z,1006.40
2023-05-23T08:15:08.844Z,1006.37
2023-05-23T08:16:09.168Z,1006.38
2023-05-23T08:17:09.468Z,1006.27
2023-05-23T08:18:09.689Z,1006.41
2023-05-23T08:19:09.849Z,1006.38
2023-05-23T08:20:10.056Z,1006.39
2023-05-23T08:21:10.326Z,1006.34
2023-05-23T08:22:10.566Z,1006.39
2023-05-23T08:23:10.904Z,1006.34
2023-05-23T08:24:12.795Z,1006.36
2023-05-23T08:25:11.364Z,1006.34
2023-05-23T08:26:11.627Z,1006.37
2023-05-23T08:27:11.862Z,1006.37
2023-05-23T08:28:12.078Z,1006.36
2023-05-23T08:29:12.317Z,1006.35
2023-05-23T08:30:12.563Z,1006.39
2023-05-23T08:31:12.794Z,1006.39
2023-05-23T08:32:13.263Z,1006.29
2023-05-23T08:33:13.459Z,1006.35
2023-05-23T08:34:13.718Z,1006.29
2023-05-23T08:35:13.953Z,1006.28
2023-05-23T08:36:14.313Z,1006.35
2023-05-23T08:37:14.566Z,1006.41
2023-05-23T08:38:14.806Z,1006.37
2023-05-23T08:39:15.058Z,1006.39
2023-05-23T08:40:15.306Z,1006.37
2023-05-23T08:41:15.575Z,1006.40
2023-05-23T08:42:15.880Z,1006.42
2023-05-23T08:43:16.068Z,1006.43
2023-05-23T08:44:16.314Z,1006.48
2023-05-23T08:45:16.581Z,1006.50
2023-05-23T08:46:16.876Z,1006.57
2023-05-23T08:47:17.121Z,1006.49
2023-05-23T08:48:17.398Z,1006.52
2023-05-23T08:49:17.672Z,1006.49
2023-05-23T08:50:21.051Z,1006.50
2023-05-23T08:51:18.224Z,1006.54
2023-05-23T08:52:18.498Z,1006.51
2023-05-23T08:53:18.725Z,1006.53
2023-05-23T08:54:18.974Z,1006.58
2023-05-23T08:55:19.233Z,1006.52
2023-05-23T08:56:19.481Z,1006.49
2023-05-23T08:57:19.717Z,1006.52
2023-05-23T08:58:19.956Z,1006.50
2023-05-23T08:59:20.210Z,1006.53
2023-05-23T09:00:20.464Z,1006.54
2023-05-23T09:01:20.751Z,1006.53
2023-05-23T09:02:21.032Z,1006.56
2023-05-23T09:03:21.265Z,1006.54
2023-05-23T09:04:21.552Z,1006.54
2023-05-23T09:05:21.864Z,1006.51
2023-05-23T09:06:22.088Z,1006.56
2023-05-23T09:07:22.308Z,1006.55
2023-05-23T09:08:22.600Z,1006.52
2023-05-23T09:09:22.854Z,1006.58
2023-05-23T09:10:23.100Z,1006.59
2023-05-23T09:11:23.322Z,1006.56
2023-05-23T09:12:23.610Z,1006.55
2023-05-23T09:13:23.910Z,1006.54
2023-05-23T09:14:24.137Z,1006.52
2023-05-23T09:15:24.355Z,1006.51
2023-05-23T09:16:24.692Z,1006.55
2023-05-23T09:17:24.930Z,1006.54
2023-05-23T09:18:25.169Z,1006.51
2023-05-23T09:19:25.457Z,1006.53
2023-05-23T09:20:25.668Z,1006.54
2023-05-23T09:21:25.925Z,1006.54
2023-05-23T09:22:26.206Z,1006.60
2023-05-23T09:23:26.414Z,1006.59
2023-05-23T09:24:26.701Z,1006.61
2023-05-23T09:25:26.952Z,1006.53
2023-05-23T09:26:27.187Z,1006.59
2023-05-23T09:27:27.445Z,1006.62
2023-05-23T09:28:27.663Z,1006.60
2023-05-23T09:29:27.912Z,1006.57
2023-05-23T09:30:28.151Z,1006.61
2023-05-23T09:31:28.543Z,1006.60
2023-05-23T09:32:28.703Z,1006.60
2023-05-23T09:33:28.890Z,1006.61
2023-05-23T09:34:29.170Z,1006.58
2023-05-23T09:35:29.413Z,1006.54
2023-05-23T09:36:29.681Z,1006.56
2023-05-23T09:37:29.933Z,1006.58
2023-05-23T09:38:30.188Z,1006.62
2023-05-23T09:39:30.470Z,1006.55
2023-05-23T09:40:30.743Z,1006.62
2023-05-23T09:41:30.982Z,1006.63
2023-05-23T09:42:31.246Z,1006.63
2023-05-23T09:43:31.499Z,1006.53
2023-05-23T09:44:31.748Z,1006.55
2023-05-23T09:45:32.002Z,1006.55
2023-05-23T09:46:32.280Z,1006.51
2023-05-23T09:47:32.554Z,1006.53
2023-05-23T09:48:32.774Z,1006.51
2023-05-23T09:49:33.019Z,1006.54
2023-05-23T09:50:33.365Z,1006.54
2023-05-23T09:51:33.483Z,1006.54
2023-05-23T09:52:33.730Z,1006.52
2023-05-23T09:53:33.961Z,1006.51
2023-05-23T09:54:34.231Z,1006.50
2023-05-23T09:55:34.500Z,1006.53
2023-05-23T09:56:34.751Z,1006.51
2023-05-23T09:57:34.994Z,1006.56
2023-05-23T09:58:35.285Z,1006.57
2023-05-23T09:59:35.533Z,1006.53
2023-05-23T10:00:35.770Z,1006.59
2023-05-23T10:01:36.077Z,1006.53
2023-05-23T10:02:36.345Z,1006.55
2023-05-23T10:03:36.566Z,1006.51
2023-05-23T10:04:36.857Z,1006.48
2023-05-23T10:05:37.117Z,1006.48
2023-05-23T10:06:37.338Z,1006.50
2023-05-23T10:07:37.568Z,1006.46
2023-05-23T10:08:37.818Z,1006.52
2023-05-23T10:09:38.063Z,1006.46
2023-05-23T10:10:38.325Z,1006.51
2023-05-23T10:11:38.570Z,1006.47
2023-05-23T10:12:38.817Z,1006.52
2023-05-23T10:13:39.062Z,1006.48
2023-05-23T10:14:39.323Z,1006.53
2023-05-23T10:15:39.566Z,1006.51
2023-05-23T10:16:39.801Z,1006.48
2023-05-23T10:17:40.087Z,1006.46
2023-05-23T10:18:40.309Z,1006.53
2023-05-23T10:19:40.640Z,1006.56
2023-05-23T10:20:41.148Z,1006.52
2023-05-23T10:21:41.150Z,1006.54
2023-05-23T10:22:41.467Z,1006.55
2023-05-23T10:23:41.620Z,1006.57
2023-05-23T10:24:41.883Z,1006.55
2023-05-23T10:25:42.131Z,1006.56
2023-05-23T10:26:42.371Z,1006.61
2023-05-23T10:27:42.651Z,1006.61
2023-05-23T10:28:42.890Z,1006.58
2023-05-23T10:29:43.118Z,1006.58
2023-05-23T10:30:43.584Z,1006.55
2023-05-23T10:31:43.677Z,1006.57
2023-05-23T10:32:43.992Z,1006.56
2023-05-23T10:33:44.188Z,1006.54
2023-05-23T10:34:44.429Z,1006.51
2023-05-23T10:35:44.720Z,1006.54
2023-05-23T10:36:44.979Z,1006.52
2023-05-23T10:37:45.218Z,1006.57
2023-05-23T10:38:45.471Z,1006.51
2023-05-23T10:39:46.517Z,1006.50
2023-05-23T10:40:46.053Z,1006.55
2023-05-23T10:41:46.349Z,1006.55
2023-05-23T10:42:46.604Z,1006.60
2023-05-23T10:43:46.845Z,1006.54
2023-05-23T10:44:47.054Z,1006.57
2023-05-23T10:45:47.340Z,1006.56
2023-05-23T10:46:47.636Z,1006.57
2023-05-23T10:47:47.918Z,1006.53
2023-05-23T10:48:48.113Z,1006.59
2023-05-23T10:49:48.369Z,1006.61
2023-05-23T10:50:48.623Z,1006.58
2023-05-23T10:51:50.894Z,1006.54
2023-05-23T10:52:49.143Z,1006.53
2023-05-23T10:53:49.334Z,1006.51
2023-05-23T10:54:49.603Z,1006.55
2023-05-23T10:55:49.865Z,1006.51
2023-05-23T10:56:50.085Z,1006.52
2023-05-23T10:57:51.085Z,1006.50
2023-05-23T10:58:50.647Z,1006.51
2023-05-23T10:59:50.903Z,1006.51
2023-05-23T11:00:51.169Z,1006.46
2023-05-23T11:01:51.453Z,1006.50
2023-05-23T11:02:51.717Z,1006.52
2023-05-23T11:03:54.118Z,1006.53
2023-05-23T11:04:52.300Z,1006.54
2023-05-23T11:05:52.535Z,1006.50
2023-05-23T11:06:52.800Z,1006.56
2023-05-23T11:07:53.046Z,1006.54
2023-05-23T11:08:53.283Z,1006.57
2023-05-23T11:09:53.545Z,1006.52
2023-05-23T11:10:53.794Z,1006.53
2023-05-23T11:11:54.081Z,1006.55
2023-05-23T11:12:54.313Z,1006.51
2023-05-23T11:13:54.612Z,1006.54
2023-05-23T11:14:55.752Z,1006.45
2023-05-23T11:15:55.158Z,1006.51
2023-05-23T11:16:55.395Z,1006.46
2023-05-23T11:17:55.673Z,1006.45
2023-05-23T11:18:55.966Z,1006.46
2023-05-23T11:19:56.225Z,1006.43
2023-05-23T11:20:56.462Z,1006.53
2023-05-23T11:21:56.719Z,1006.47
2023-05-23T11:22:56.987Z,1006.51
2023-05-23T11:23:57.233Z,1006.51
2023-05-23T11:24:57.497Z,1006.48
2023-05-23T11:25:57.728Z,1006.53
2023-05-23T11:26:57.974Z,1006.47
2023-05-23T11:27:58.219Z,1006.51
2023-05-23T11:28:58.478Z,1006.48
2023-05-23T11:29:58.721Z,1006.49
2023-05-23T11:30:59.002Z,1006.51
2023-05-23T11:31:59.291Z,1006.48
2023-05-23T11:32:59.561Z,1006.52
2023-05-23T11:33:59.780Z,1006.43
2023-05-23T11:35:00.021Z,1006.48
2023-05-23T11:36:00.284Z,1006.47
2023-05-23T11:37:00.569Z,1006.45
2023-05-23T11:38:00.794Z,1006.54
2023-05-23T11:39:01.039Z,1006.52
2023-05-23T11:40:01.245Z,1006.53
2023-05-23T11:41:01.613Z,1006.49
2023-05-23T11:42:01.846Z,1006.47
2023-05-23T11:43:02.102Z,1006.46
2023-05-23T11:44:02.311Z,1006.51
2023-05-23T11:45:02.540Z,1006.47
2023-05-23T11:46:02.914Z,1006.39
2023-05-23T11:47:03.157Z,1006.38
2023-05-23T11:48:03.436Z,1006.43
2023-05-23T11:49:03.749Z,1006.44
2023-05-23T11:50:04.013Z,1006.45
2023-05-23T11:51:04.245Z,1006.37
2023-05-23T11:52:04.535Z,1006.41
2023-05-23T11:53:04.786Z,1006.41
2023-05-23T11:54:05.029Z,1006.44
2023-05-23T11:55:05.252Z,1006.38
2023-05-23T11:56:05.520Z,1006.40
2023-05-23T11:57:05.766Z,1006.37
2023-05-23T11:58:05.999Z,1006.39
2023-05-23T11:59:06.244Z,1006.40
2023-05-23T12:00:06.461Z,1006.37
2023-05-23T12:01:06.704Z,1006.41
2023-05-23T12:02:06.968Z,1006.40
2023-05-23T12:03:07.307Z,1006.39
2023-05-23T12:04:07.484Z,1006.39
2023-05-23T12:05:07.813Z,1006.38
2023-05-23T12:06:08.089Z,1006.37
2023-05-23T12:07:10.326Z,1006.35
2023-05-23T12:08:09.562Z,1006.33
2023-05-23T12:09:09.832Z,1006.39